sensor_id;sensor_type;location;lat;lon;timestamp;temperature;humidity
5304;DHT22;2674;49.722;10.892;2023-06-14T00:00:40;14.80;1.00
5304;DHT22;2674;49.722;10.892;2023-06-14T00:03:10;14.80;1.00
5304;DHT22;2674;49.722;10.892;2023-06-14T00:05:38;14.70;1.00
5304;DHT22;2674;49.722;10.892;2023-06-14T00:08:07;14.60;1.00
5304;DHT22;2674;49.722;10.892;2023-06-14T00:10:37;14.50;1.00
5304;DHT22;2674;49.722;10.892;2023-06-14T00:13:04;14.40;1.00
5304;DHT22;2674;49.722;10.892;2023-06-14T00:15:34;14.40;1.00
5304;DHT22;2674;49.722;10.892;2023-06-14T00:18:00;14.30;1.00
5304;DHT22;2674;49.722;10.892;2023-06-14T00:20:30;14.20;1.00
5304;DHT22;2674;49.722;10.892;2023-06-14T00:22:58;14.10;1.00
5304;DHT22;2674;49.722;10.892;2023-06-14T00:25:24;14.10;1.00
5304;DHT22;2674;49.722;10.892;2023-06-14T00:27:54;14.00;1.00
5304;DHT22;2674;49.722;10.892;2023-06-14T00:30:20;13.90;1.00
5304;DHT22;2674;49.722;10.892;2023-06-14T00:32:46;13.90;1.00
5304;DHT22;2674;49.722;10.892;2023-06-14T00:35:12;13.80;1.00
5304;DHT22;2674;49.722;10.892;2023-06-14T00:37:38;13.70;1.00
5304;DHT22;2674;49.722;10.892;2023-06-14T00:40:05;13.70;1.00
5304;DHT22;2674;49.722;10.892;2023-06-14T00:42:31;13.70;1.00
5304;DHT22;2674;49.722;10.892;2023-06-14T00:44:57;13.80;1.00
5304;DHT22;2674;49.722;10.892;2023-06-14T00:47:23;13.80;1.00
5304;DHT22;2674;49.722;10.892;2023-06-14T00:49:53;13.80;1.00
5304;DHT22;2674;49.722;10.892;2023-06-14T00:52:21;13.90;1.00
5304;DHT22;2674;49.722;10.892;2023-06-14T00:54:47;13.90;1.00
5304;DHT22;2674;49.722;10.892;2023-06-14T00:57:13;13.90;1.00
5304;DHT22;2674;49.722;10.892;2023-06-14T00:59:46;13.90;1.00
5304;DHT22;2674;49.722;10.892;2023-06-14T01:02:13;14.00;1.00
5304;DHT22;2674;49.722;10.892;2023-06-14T01:04:46;14.00;1.00
5304;DHT22;2674;49.722;10.892;2023-06-14T01:16:14;14.10;1.00
5304;DHT22;2674;49.722;10.892;2023-06-14T01:18:40;14.00;1.00
5304;DHT22;2674;49.722;10.892;2023-06-14T01:21:23;14.00;1.00
5304;DHT22;2674;49.722;10.892;2023-06-14T01:23:49;13.90;1.00
5304;DHT22;2674;49.722;10.892;2023-06-14T01:26:19;13.90;1.00
5304;DHT22;2674;49.722;10.892;2023-06-14T01:28:46;13.70;1.00
5304;DHT22;2674;49.722;10.892;2023-06-14T01:31:18;13.60;1.00
5304;DHT22;2674;49.722;10.892;2023-06-14T01:33:45;13.60;1.00
5304;DHT22;2674;49.722;10.892;2023-06-14T01:36:12;13.50;1.00
5304;DHT22;2674;49.722;10.892;2023-06-14T01:38:38;13.40;1.00
5304;DHT22;2674;49.722;10.892;2023-06-14T01:41:04;13.30;1.00
5304;DHT22;2674;49.722;10.892;2023-06-14T01:43:31;13.20;1.00
5304;DHT22;2674;49.722;10.892;2023-06-14T01:45:57;13.30;1.00
5304;DHT22;2674;49.722;10.892;2023-06-14T01:48:26;13.30;1.00
5304;DHT22;2674;49.722;10.892;2023-06-14T01:50:52;13.30;1.00
5304;DHT22;2674;49.722;10.892;2023-06-14T01:53:18;13.30;1.00
5304;DHT22;2674;49.722;10.892;2023-06-14T01:55:44;13.30;1.00
5304;DHT22;2674;49.722;10.892;2023-06-14T01:58:14;13.20;1.00
5304;DHT22;2674;49.722;10.892;2023-06-14T02:00:41;13.20;1.00
5304;DHT22;2674;49.722;10.892;2023-06-14T02:03:09;13.20;1.00
5304;DHT22;2674;49.722;10.892;2023-06-14T02:05:35;13.20;1.00
5304;DHT22;2674;49.722;10.892;2023-06-14T02:08:01;13.20;1.00
5304;DHT22;2674;49.722;10.892;2023-06-14T02:10:26;13.20;1.00
5304;DHT22;2674;49.722;10.892;2023-06-14T02:12:52;13.20;1.00
5304;DHT22;2674;49.722;10.892;2023-06-14T02:15:18;13.20;1.00
5304;DHT22;2674;49.722;10.892;2023-06-14T02:17:45;13.40;1.00
5304;DHT22;2674;49.722;10.892;2023-06-14T02:20:13;13.10;1.00
5304;DHT22;2674;49.722;10.892;2023-06-14T02:22:39;13.10;1.00
5304;DHT22;2674;49.722;10.892;2023-06-14T02:25:05;13.10;1.00
5304;DHT22;2674;49.722;10.892;2023-06-14T02:27:32;13.10;1.00
5304;DHT22;2674;49.722;10.892;2023-06-14T02:29:58;13.00;1.00
5304;DHT22;2674;49.722;10.892;2023-06-14T02:32:23;13.00;1.00
5304;DHT22;2674;49.722;10.892;2023-06-14T02:34:50;12.90;1.00
5304;DHT22;2674;49.722;10.892;2023-06-14T02:37:19;12.90;1.00
5304;DHT22;2674;49.722;10.892;2023-06-14T02:39:44;12.70;1.00
5304;DHT22;2674;49.722;10.892;2023-06-14T02:42:10;12.60;1.00
5304;DHT22;2674;49.722;10.892;2023-06-14T02:44:36;12.50;1.00
5304;DHT22;2674;49.722;10.892;2023-06-14T02:47:03;12.30;1.00
5304;DHT22;2674;49.722;10.892;2023-06-14T02:49:28;12.40;1.00
5304;DHT22;2674;49.722;10.892;2023-06-14T02:51:55;12.40;1.00
5304;DHT22;2674;49.722;10.892;2023-06-14T02:54:21;12.40;1.00
5304;DHT22;2674;49.722;10.892;2023-06-14T02:56:47;12.30;1.00
5304;DHT22;2674;49.722;10.892;2023-06-14T02:59:13;12.30;1.00
5304;DHT22;2674;49.722;10.892;2023-06-14T03:01:40;12.30;1.00
5304;DHT22;2674;49.722;10.892;2023-06-14T03:04:08;12.30;1.00
5304;DHT22;2674;49.722;10.892;2023-06-14T03:06:34;12.20;1.00
5304;DHT22;2674;49.722;10.892;2023-06-14T03:09:00;12.20;1.00
5304;DHT22;2674;49.722;10.892;2023-06-14T03:11:30;12.10;1.00
5304;DHT22;2674;49.722;10.892;2023-06-14T03:13:56;12.00;1.00
5304;DHT22;2674;49.722;10.892;2023-06-14T03:16:22;11.90;1.00
5304;DHT22;2674;49.722;10.892;2023-06-14T03:18:53;12.00;1.00
5304;DHT22;2674;49.722;10.892;2023-06-14T03:21:19;12.20;1.00
5304;DHT22;2674;49.722;10.892;2023-06-14T03:23:46;12.20;1.00
5304;DHT22;2674;49.722;10.892;2023-06-14T03:26:12;12.20;1.00
5304;DHT22;2674;49.722;10.892;2023-06-14T03:28:39;12.30;1.00
5304;DHT22;2674;49.722;10.892;2023-06-14T03:31:05;12.20;1.00
5304;DHT22;2674;49.722;10.892;2023-06-14T03:33:32;12.30;1.00
5304;DHT22;2674;49.722;10.892;2023-06-14T03:35:57;12.30;1.00
5304;DHT22;2674;49.722;10.892;2023-06-14T03:38:23;12.30;1.00
5304;DHT22;2674;49.722;10.892;2023-06-14T03:40:49;12.30;1.00
5304;DHT22;2674;49.722;10.892;2023-06-14T03:43:15;12.30;1.00
5304;DHT22;2674;49.722;10.892;2023-06-14T03:45:40;12.30;1.00
5304;DHT22;2674;49.722;10.892;2023-06-14T03:48:06;12.20;1.00
5304;DHT22;2674;49.722;10.892;2023-06-14T03:50:34;12.20;1.00
5304;DHT22;2674;49.722;10.892;2023-06-14T03:53:00;12.30;1.00
5304;DHT22;2674;49.722;10.892;2023-06-14T03:55:26;12.30;1.00
5304;DHT22;2674;49.722;10.892;2023-06-14T03:57:53;12.30;1.00
5304;DHT22;2674;49.722;10.892;2023-06-14T04:00:19;12.30;1.00
5304;DHT22;2674;49.722;10.892;2023-06-14T04:02:45;12.30;1.00
5304;DHT22;2674;49.722;10.892;2023-06-14T04:05:11;12.30;1.00
5304;DHT22;2674;49.722;10.892;2023-06-14T04:07:36;12.40;1.00
5304;DHT22;2674;49.722;10.892;2023-06-14T04:10:08;12.40;1.00
5304;DHT22;2674;49.722;10.892;2023-06-14T04:12:34;12.40;1.00
5304;DHT22;2674;49.722;10.892;2023-06-14T04:15:00;12.40;1.00
5304;DHT22;2674;49.722;10.892;2023-06-14T04:17:26;12.40;1.00
5304;DHT22;2674;49.722;10.892;2023-06-14T04:19:52;12.50;1.00
5304;DHT22;2674;49.722;10.892;2023-06-14T04:22:18;12.60;1.00
5304;DHT22;2674;49.722;10.892;2023-06-14T04:24:43;12.70;1.00
5304;DHT22;2674;49.722;10.892;2023-06-14T04:27:10;13.10;1.00
5304;DHT22;2674;49.722;10.892;2023-06-14T04:29:36;13.50;1.00
5304;DHT22;2674;49.722;10.892;2023-06-14T04:32:02;13.90;1.00
5304;DHT22;2674;49.722;10.892;2023-06-14T04:34:28;14.20;1.00
5304;DHT22;2674;49.722;10.892;2023-06-14T04:36:58;14.20;1.00
5304;DHT22;2674;49.722;10.892;2023-06-14T04:39:25;14.20;1.00
5304;DHT22;2674;49.722;10.892;2023-06-14T04:41:52;14.50;1.00
5304;DHT22;2674;49.722;10.892;2023-06-14T04:44:25;14.80;1.00
5304;DHT22;2674;49.722;10.892;2023-06-14T04:46:56;14.90;1.00
5304;DHT22;2674;49.722;10.892;2023-06-14T04:49:24;14.80;1.00
5304;DHT22;2674;49.722;10.892;2023-06-14T04:51:53;14.60;1.00
5304;DHT22;2674;49.722;10.892;2023-06-14T04:54:23;14.50;1.00
5304;DHT22;2674;49.722;10.892;2023-06-14T04:56:51;14.70;1.00
5304;DHT22;2674;49.722;10.892;2023-06-14T04:59:17;15.20;1.00
5304;DHT22;2674;49.722;10.892;2023-06-14T05:01:43;15.60;1.00
5304;DHT22;2674;49.722;10.892;2023-06-14T05:04:20;16.00;1.00
5304;DHT22;2674;49.722;10.892;2023-06-14T05:06:47;16.30;1.00
5304;DHT22;2674;49.722;10.892;2023-06-14T05:09:14;16.30;1.00
5304;DHT22;2674;49.722;10.892;2023-06-14T05:11:43;16.20;1.00
5304;DHT22;2674;49.722;10.892;2023-06-14T05:14:11;16.50;1.00
5304;DHT22;2674;49.722;10.892;2023-06-14T05:16:37;16.70;1.00
5304;DHT22;2674;49.722;10.892;2023-06-14T05:19:03;16.60;1.00
5304;DHT22;2674;49.722;10.892;2023-06-14T05:21:30;16.50;1.00
5304;DHT22;2674;49.722;10.892;2023-06-14T05:23:57;16.70;1.00
5304;DHT22;2674;49.722;10.892;2023-06-14T05:26:23;16.70;1.00
5304;DHT22;2674;49.722;10.892;2023-06-14T05:28:50;16.60;1.00
5304;DHT22;2674;49.722;10.892;2023-06-14T05:31:18;16.60;1.00
5304;DHT22;2674;49.722;10.892;2023-06-14T05:33:44;16.40;1.00
5304;DHT22;2674;49.722;10.892;2023-06-14T05:36:09;16.20;1.00
5304;DHT22;2674;49.722;10.892;2023-06-14T05:38:35;16.00;1.00
5304;DHT22;2674;49.722;10.892;2023-06-14T05:41:01;16.00;1.00
5304;DHT22;2674;49.722;10.892;2023-06-14T05:43:27;16.10;1.00
5304;DHT22;2674;49.722;10.892;2023-06-14T05:45:53;16.30;1.00
5304;DHT22;2674;49.722;10.892;2023-06-14T05:48:19;16.50;1.00
5304;DHT22;2674;49.722;10.892;2023-06-14T05:50:45;16.60;1.00
5304;DHT22;2674;49.722;10.892;2023-06-14T05:53:11;16.80;1.00
5304;DHT22;2674;49.722;10.892;2023-06-14T05:55:36;17.00;1.00
5304;DHT22;2674;49.722;10.892;2023-06-14T05:58:02;17.20;1.00
5304;DHT22;2674;49.722;10.892;2023-06-14T06:00:28;17.30;1.00
5304;DHT22;2674;49.722;10.892;2023-06-14T06:02:54;17.60;1.00
5304;DHT22;2674;49.722;10.892;2023-06-14T06:05:22;17.60;1.00
5304;DHT22;2674;49.722;10.892;2023-06-14T06:07:48;17.50;1.00
5304;DHT22;2674;49.722;10.892;2023-06-14T06:10:14;17.40;1.00
5304;DHT22;2674;49.722;10.892;2023-06-14T06:12:44;17.50;1.00
5304;DHT22;2674;49.722;10.892;2023-06-14T06:15:10;17.60;1.00
5304;DHT22;2674;49.722;10.892;2023-06-14T06:17:40;17.70;1.00
5304;DHT22;2674;49.722;10.892;2023-06-14T06:20:06;17.70;1.00
5304;DHT22;2674;49.722;10.892;2023-06-14T06:22:34;17.90;1.00
5304;DHT22;2674;49.722;10.892;2023-06-14T06:25:00;18.10;1.00
5304;DHT22;2674;49.722;10.892;2023-06-14T06:27:26;18.10;1.00
5304;DHT22;2674;49.722;10.892;2023-06-14T06:29:51;18.00;1.00
5304;DHT22;2674;49.722;10.892;2023-06-14T06:32:18;18.00;1.00
5304;DHT22;2674;49.722;10.892;2023-06-14T06:34:44;17.90;1.00
5304;DHT22;2674;49.722;10.892;2023-06-14T06:37:10;17.80;1.00
5304;DHT22;2674;49.722;10.892;2023-06-14T06:39:36;17.80;1.00
5304;DHT22;2674;49.722;10.892;2023-06-14T06:42:02;18.00;1.00
5304;DHT22;2674;49.722;10.892;2023-06-14T06:44:28;18.30;1.00
5304;DHT22;2674;49.722;10.892;2023-06-14T06:46:54;18.30;1.00
5304;DHT22;2674;49.722;10.892;2023-06-14T06:49:20;18.20;1.00
5304;DHT22;2674;49.722;10.892;2023-06-14T06:52:03;18.50;1.00
5304;DHT22;2674;49.722;10.892;2023-06-14T06:54:29;18.70;1.00
5304;DHT22;2674;49.722;10.892;2023-06-14T06:56:55;19.00;1.00
5304;DHT22;2674;49.722;10.892;2023-06-14T06:59:22;19.40;1.00
5304;DHT22;2674;49.722;10.892;2023-06-14T07:01:47;19.40;1.00
5304;DHT22;2674;49.722;10.892;2023-06-14T07:04:13;19.40;1.00
5304;DHT22;2674;49.722;10.892;2023-06-14T07:06:39;19.30;1.00
5304;DHT22;2674;49.722;10.892;2023-06-14T07:09:05;19.30;1.00
5304;DHT22;2674;49.722;10.892;2023-06-14T07:11:34;19.40;1.00
5304;DHT22;2674;49.722;10.892;2023-06-14T07:13:59;19.80;1.00
5304;DHT22;2674;49.722;10.892;2023-06-14T07:16:25;19.90;1.00
5304;DHT22;2674;49.722;10.892;2023-06-14T07:18:52;19.80;1.00
5304;DHT22;2674;49.722;10.892;2023-06-14T07:21:18;19.70;1.00
5304;DHT22;2674;49.722;10.892;2023-06-14T07:23:43;19.90;1.00
5304;DHT22;2674;49.722;10.892;2023-06-14T07:26:09;19.90;1.00
5304;DHT22;2674;49.722;10.892;2023-06-14T07:28:35;19.90;1.00
5304;DHT22;2674;49.722;10.892;2023-06-14T07:31:01;19.90;1.00
5304;DHT22;2674;49.722;10.892;2023-06-14T07:33:28;19.80;1.00
5304;DHT22;2674;49.722;10.892;2023-06-14T07:35:54;19.70;1.00
5304;DHT22;2674;49.722;10.892;2023-06-14T07:38:20;19.80;1.00
5304;DHT22;2674;49.722;10.892;2023-06-14T07:40:46;19.70;1.00
5304;DHT22;2674;49.722;10.892;2023-06-14T07:43:12;19.80;1.00
5304;DHT22;2674;49.722;10.892;2023-06-14T07:45:37;20.10;1.00
5304;DHT22;2674;49.722;10.892;2023-06-14T07:48:04;20.10;1.00
5304;DHT22;2674;49.722;10.892;2023-06-14T07:50:30;20.30;1.00
5304;DHT22;2674;49.722;10.892;2023-06-14T07:52:56;20.60;1.00
5304;DHT22;2674;49.722;10.892;2023-06-14T07:55:22;20.60;1.00
5304;DHT22;2674;49.722;10.892;2023-06-14T07:57:48;20.40;1.00
5304;DHT22;2674;49.722;10.892;2023-06-14T08:00:14;20.40;1.00
5304;DHT22;2674;49.722;10.892;2023-06-14T08:02:44;20.50;1.00
5304;DHT22;2674;49.722;10.892;2023-06-14T08:05:11;20.50;1.00
5304;DHT22;2674;49.722;10.892;2023-06-14T08:07:37;20.60;1.00
5304;DHT22;2674;49.722;10.892;2023-06-14T08:10:07;20.60;1.00
5304;DHT22;2674;49.722;10.892;2023-06-14T08:12:33;20.70;1.00
5304;DHT22;2674;49.722;10.892;2023-06-14T08:14:59;20.90;1.00
5304;DHT22;2674;49.722;10.892;2023-06-14T08:17:25;21.10;1.00
5304;DHT22;2674;49.722;10.892;2023-06-14T08:19:52;21.30;1.00
5304;DHT22;2674;49.722;10.892;2023-06-14T08:22:20;21.10;1.00
5304;DHT22;2674;49.722;10.892;2023-06-14T08:24:47;21.00;1.00
5304;DHT22;2674;49.722;10.892;2023-06-14T08:27:13;21.10;1.00
5304;DHT22;2674;49.722;10.892;2023-06-14T08:29:39;20.90;1.00
5304;DHT22;2674;49.722;10.892;2023-06-14T08:32:06;21.00;1.00
5304;DHT22;2674;49.722;10.892;2023-06-14T08:34:32;21.20;1.00
5304;DHT22;2674;49.722;10.892;2023-06-14T08:36:58;21.40;1.00
5304;DHT22;2674;49.722;10.892;2023-06-14T08:39:24;21.60;1.00
5304;DHT22;2674;49.722;10.892;2023-06-14T08:41:50;21.20;1.00
5304;DHT22;2674;49.722;10.892;2023-06-14T08:44:17;21.30;1.00
5304;DHT22;2674;49.722;10.892;2023-06-14T08:46:43;21.20;1.00
5304;DHT22;2674;49.722;10.892;2023-06-14T08:49:12;21.30;1.00
5304;DHT22;2674;49.722;10.892;2023-06-14T08:51:39;21.50;1.00
5304;DHT22;2674;49.722;10.892;2023-06-14T08:54:06;21.50;1.00
5304;DHT22;2674;49.722;10.892;2023-06-14T08:56:32;21.70;1.00
5304;DHT22;2674;49.722;10.892;2023-06-14T08:59:00;21.90;1.00
5304;DHT22;2674;49.722;10.892;2023-06-14T09:01:36;21.80;1.00
5304;DHT22;2674;49.722;10.892;2023-06-14T09:04:03;21.90;1.00
5304;DHT22;2674;49.722;10.892;2023-06-14T09:06:31;22.00;1.00
5304;DHT22;2674;49.722;10.892;2023-06-14T09:08:57;22.20;1.00
5304;DHT22;2674;49.722;10.892;2023-06-14T09:11:23;22.40;1.00
5304;DHT22;2674;49.722;10.892;2023-06-14T09:13:49;22.50;1.00
5304;DHT22;2674;49.722;10.892;2023-06-14T09:16:16;22.50;1.00
5304;DHT22;2674;49.722;10.892;2023-06-14T09:18:46;22.60;1.00
5304;DHT22;2674;49.722;10.892;2023-06-14T09:21:16;22.60;1.00
5304;DHT22;2674;49.722;10.892;2023-06-14T09:23:44;22.80;1.00
5304;DHT22;2674;49.722;10.892;2023-06-14T09:26:18;22.90;1.00
5304;DHT22;2674;49.722;10.892;2023-06-14T09:28:49;22.90;1.00
5304;DHT22;2674;49.722;10.892;2023-06-14T09:31:17;23.00;1.00
5304;DHT22;2674;49.722;10.892;2023-06-14T09:33:47;22.60;1.00
5304;DHT22;2674;49.722;10.892;2023-06-14T09:36:22;22.10;1.00
5304;DHT22;2674;49.722;10.892;2023-06-14T09:39:09;21.80;1.00
5304;DHT22;2674;49.722;10.892;2023-06-14T09:44:02;21.30;1.00
5304;DHT22;2674;49.722;10.892;2023-06-14T09:46:29;21.30;1.00
5304;DHT22;2674;49.722;10.892;2023-06-14T09:48:57;21.40;1.00
5304;DHT22;2674;49.722;10.892;2023-06-14T09:51:23;21.50;1.00
5304;DHT22;2674;49.722;10.892;2023-06-14T09:53:50;21.80;1.00
5304;DHT22;2674;49.722;10.892;2023-06-14T09:56:26;22.00;1.00
5304;DHT22;2674;49.722;10.892;2023-06-14T09:58:55;21.90;1.00
5304;DHT22;2674;49.722;10.892;2023-06-14T10:01:23;22.00;1.00
5304;DHT22;2674;49.722;10.892;2023-06-14T10:03:51;22.00;1.00
5304;DHT22;2674;49.722;10.892;2023-06-14T10:06:19;22.30;1.00
5304;DHT22;2674;49.722;10.892;2023-06-14T10:08:50;22.50;1.00
5304;DHT22;2674;49.722;10.892;2023-06-14T10:11:17;22.20;1.00
5304;DHT22;2674;49.722;10.892;2023-06-14T10:13:43;22.10;1.00
5304;DHT22;2674;49.722;10.892;2023-06-14T10:16:15;21.80;1.00
5304;DHT22;2674;49.722;10.892;2023-06-14T10:18:51;21.80;1.00
5304;DHT22;2674;49.722;10.892;2023-06-14T10:24:12;22.50;1.00
5304;DHT22;2674;49.722;10.892;2023-06-14T10:26:53;22.90;1.00
5304;DHT22;2674;49.722;10.892;2023-06-14T10:29:20;23.20;1.00
5304;DHT22;2674;49.722;10.892;2023-06-14T10:31:47;23.30;1.00
5304;DHT22;2674;49.722;10.892;2023-06-14T10:34:34;23.50;1.00
5304;DHT22;2674;49.722;10.892;2023-06-14T10:37:06;23.40;1.00
5304;DHT22;2674;49.722;10.892;2023-06-14T10:39:43;23.20;1.00
5304;DHT22;2674;49.722;10.892;2023-06-14T10:42:11;23.00;1.00
5304;DHT22;2674;49.722;10.892;2023-06-14T10:44:39;23.00;1.00
5304;DHT22;2674;49.722;10.892;2023-06-14T10:50:02;22.90;1.00
5304;DHT22;2674;49.722;10.892;2023-06-14T10:52:31;22.90;1.00
5304;DHT22;2674;49.722;10.892;2023-06-14T10:55:02;23.00;1.00
5304;DHT22;2674;49.722;10.892;2023-06-14T10:57:35;23.10;1.00
5304;DHT22;2674;49.722;10.892;2023-06-14T11:00:03;23.00;1.00
5304;DHT22;2674;49.722;10.892;2023-06-14T11:10:47;22.60;1.00
5304;DHT22;2674;49.722;10.892;2023-06-14T11:13:16;22.60;1.00
5304;DHT22;2674;49.722;10.892;2023-06-14T11:15:47;22.50;1.00
5304;DHT22;2674;49.722;10.892;2023-06-14T11:18:14;22.70;1.00
5304;DHT22;2674;49.722;10.892;2023-06-14T11:20:42;23.20;1.00
5304;DHT22;2674;49.722;10.892;2023-06-14T11:23:08;23.60;1.00
5304;DHT22;2674;49.722;10.892;2023-06-14T11:25:33;23.90;1.00
5304;DHT22;2674;49.722;10.892;2023-06-14T11:27:59;24.10;1.00
5304;DHT22;2674;49.722;10.892;2023-06-14T11:30:25;24.10;1.00
5304;DHT22;2674;49.722;10.892;2023-06-14T11:32:53;24.20;1.00
5304;DHT22;2674;49.722;10.892;2023-06-14T11:35:22;24.10;1.00
5304;DHT22;2674;49.722;10.892;2023-06-14T11:37:52;24.10;1.00
5304;DHT22;2674;49.722;10.892;2023-06-14T11:40:18;24.10;1.00
5304;DHT22;2674;49.722;10.892;2023-06-14T11:42:44;24.20;1.00
5304;DHT22;2674;49.722;10.892;2023-06-14T11:45:11;24.00;1.00
5304;DHT22;2674;49.722;10.892;2023-06-14T11:47:39;23.50;1.00
5304;DHT22;2674;49.722;10.892;2023-06-14T11:50:07;23.20;1.00
5304;DHT22;2674;49.722;10.892;2023-06-14T11:52:37;23.10;1.00
5304;DHT22;2674;49.722;10.892;2023-06-14T11:55:03;23.50;1.00
5304;DHT22;2674;49.722;10.892;2023-06-14T11:57:36;24.00;1.00
5304;DHT22;2674;49.722;10.892;2023-06-14T12:00:07;24.20;1.00
5304;DHT22;2674;49.722;10.892;2023-06-14T12:02:37;24.50;1.00
5304;DHT22;2674;49.722;10.892;2023-06-14T12:05:05;24.50;1.00
5304;DHT22;2674;49.722;10.892;2023-06-14T12:07:33;24.30;1.00
5304;DHT22;2674;49.722;10.892;2023-06-14T12:12:26;24.50;1.00
5304;DHT22;2674;49.722;10.892;2023-06-14T12:14:56;24.90;1.00
5304;DHT22;2674;49.722;10.892;2023-06-14T12:17:22;25.10;1.00
5304;DHT22;2674;49.722;10.892;2023-06-14T12:19:49;25.10;1.00
5304;DHT22;2674;49.722;10.892;2023-06-14T12:22:19;25.10;1.00
5304;DHT22;2674;49.722;10.892;2023-06-14T12:24:45;24.90;1.00
5304;DHT22;2674;49.722;10.892;2023-06-14T12:27:12;24.80;1.00
5304;DHT22;2674;49.722;10.892;2023-06-14T12:29:42;24.50;1.00
5304;DHT22;2674;49.722;10.892;2023-06-14T12:32:11;24.50;1.00
5304;DHT22;2674;49.722;10.892;2023-06-14T12:34:37;24.20;1.00
5304;DHT22;2674;49.722;10.892;2023-06-14T12:37:03;24.20;1.00
5304;DHT22;2674;49.722;10.892;2023-06-14T12:39:32;24.20;1.00
5304;DHT22;2674;49.722;10.892;2023-06-14T12:41:58;24.20;1.00
5304;DHT22;2674;49.722;10.892;2023-06-14T12:44:24;24.40;1.00
5304;DHT22;2674;49.722;10.892;2023-06-14T12:46:50;24.50;1.00
5304;DHT22;2674;49.722;10.892;2023-06-14T12:49:20;24.60;1.00
5304;DHT22;2674;49.722;10.892;2023-06-14T12:51:46;24.90;1.00
5304;DHT22;2674;49.722;10.892;2023-06-14T12:54:12;25.00;1.00
5304;DHT22;2674;49.722;10.892;2023-06-14T12:56:40;24.80;1.00
5304;DHT22;2674;49.722;10.892;2023-06-14T12:59:07;24.70;1.00
5304;DHT22;2674;49.722;10.892;2023-06-14T13:01:33;24.70;1.00
5304;DHT22;2674;49.722;10.892;2023-06-14T13:03:59;24.80;1.00
5304;DHT22;2674;49.722;10.892;2023-06-14T13:06:25;24.80;1.00
5304;DHT22;2674;49.722;10.892;2023-06-14T13:08:50;24.90;1.00
5304;DHT22;2674;49.722;10.892;2023-06-14T13:11:16;24.80;1.00
5304;DHT22;2674;49.722;10.892;2023-06-14T13:13:42;24.60;1.00
5304;DHT22;2674;49.722;10.892;2023-06-14T13:16:08;24.60;1.00
5304;DHT22;2674;49.722;10.892;2023-06-14T13:18:34;24.60;1.00
5304;DHT22;2674;49.722;10.892;2023-06-14T13:21:00;24.70;1.00
5304;DHT22;2674;49.722;10.892;2023-06-14T13:23:26;24.80;1.00
5304;DHT22;2674;49.722;10.892;2023-06-14T13:25:52;24.90;1.00
5304;DHT22;2674;49.722;10.892;2023-06-14T13:28:18;24.70;1.00
5304;DHT22;2674;49.722;10.892;2023-06-14T13:30:45;24.50;1.00
5304;DHT22;2674;49.722;10.892;2023-06-14T13:33:10;24.50;1.00
5304;DHT22;2674;49.722;10.892;2023-06-14T13:35:36;24.80;1.00
5304;DHT22;2674;49.722;10.892;2023-06-14T13:38:02;25.10;1.00
5304;DHT22;2674;49.722;10.892;2023-06-14T13:40:28;25.20;1.00
5304;DHT22;2674;49.722;10.892;2023-06-14T13:42:55;25.50;1.00
5304;DHT22;2674;49.722;10.892;2023-06-14T13:45:21;25.80;1.00
5304;DHT22;2674;49.722;10.892;2023-06-14T13:47:47;26.20;1.00
5304;DHT22;2674;49.722;10.892;2023-06-14T13:50:14;26.60;1.00
5304;DHT22;2674;49.722;10.892;2023-06-14T13:52:40;26.90;1.00
5304;DHT22;2674;49.722;10.892;2023-06-14T13:55:06;27.10;1.00
5304;DHT22;2674;49.722;10.892;2023-06-14T13:57:32;27.10;1.00
5304;DHT22;2674;49.722;10.892;2023-06-14T13:59:58;27.30;1.00
5304;DHT22;2674;49.722;10.892;2023-06-14T14:02:27;27.10;1.00
5304;DHT22;2674;49.722;10.892;2023-06-14T14:04:55;26.90;1.00
5304;DHT22;2674;49.722;10.892;2023-06-14T14:07:21;26.10;1.00
5304;DHT22;2674;49.722;10.892;2023-06-14T14:09:47;25.70;1.00
5304;DHT22;2674;49.722;10.892;2023-06-14T14:12:13;25.60;1.00
5304;DHT22;2674;49.722;10.892;2023-06-14T14:14:42;25.60;1.00
5304;DHT22;2674;49.722;10.892;2023-06-14T14:17:08;25.80;1.00
5304;DHT22;2674;49.722;10.892;2023-06-14T14:19:34;25.80;1.00
5304;DHT22;2674;49.722;10.892;2023-06-14T14:22:01;26.00;1.00
5304;DHT22;2674;49.722;10.892;2023-06-14T14:24:27;25.90;1.00
5304;DHT22;2674;49.722;10.892;2023-06-14T14:26:54;25.80;1.00
5304;DHT22;2674;49.722;10.892;2023-06-14T14:29:21;25.90;1.00
5304;DHT22;2674;49.722;10.892;2023-06-14T14:31:48;25.90;1.00
5304;DHT22;2674;49.722;10.892;2023-06-14T14:34:14;25.80;1.00
5304;DHT22;2674;49.722;10.892;2023-06-14T14:36:40;25.90;1.00
5304;DHT22;2674;49.722;10.892;2023-06-14T14:39:08;26.20;1.00
5304;DHT22;2674;49.722;10.892;2023-06-14T14:41:34;26.10;1.00
5304;DHT22;2674;49.722;10.892;2023-06-14T14:44:00;26.10;1.00
5304;DHT22;2674;49.722;10.892;2023-06-14T14:46:27;26.40;1.00
5304;DHT22;2674;49.722;10.892;2023-06-14T14:48:53;26.30;1.00
5304;DHT22;2674;49.722;10.892;2023-06-14T14:51:19;26.60;1.00
5304;DHT22;2674;49.722;10.892;2023-06-14T14:53:45;26.70;1.00
5304;DHT22;2674;49.722;10.892;2023-06-14T14:56:11;26.70;1.00
5304;DHT22;2674;49.722;10.892;2023-06-14T14:58:38;26.40;1.00
5304;DHT22;2674;49.722;10.892;2023-06-14T15:01:04;26.10;1.00
5304;DHT22;2674;49.722;10.892;2023-06-14T15:03:31;26.20;1.00
5304;DHT22;2674;49.722;10.892;2023-06-14T15:05:57;26.30;1.00
5304;DHT22;2674;49.722;10.892;2023-06-14T15:08:23;26.40;1.00
5304;DHT22;2674;49.722;10.892;2023-06-14T15:10:49;26.60;1.00
5304;DHT22;2674;49.722;10.892;2023-06-14T15:13:15;26.70;1.00
5304;DHT22;2674;49.722;10.892;2023-06-14T15:15:40;26.40;1.00
5304;DHT22;2674;49.722;10.892;2023-06-14T15:18:06;25.80;1.00
5304;DHT22;2674;49.722;10.892;2023-06-14T15:20:32;25.40;1.00
5304;DHT22;2674;49.722;10.892;2023-06-14T15:23:00;25.00;1.00
5304;DHT22;2674;49.722;10.892;2023-06-14T15:25:29;24.90;1.00
5304;DHT22;2674;49.722;10.892;2023-06-14T15:27:57;24.60;1.00
5304;DHT22;2674;49.722;10.892;2023-06-14T15:30:23;24.50;1.00
5304;DHT22;2674;49.722;10.892;2023-06-14T15:32:49;24.30;1.00
5304;DHT22;2674;49.722;10.892;2023-06-14T15:35:17;24.10;1.00
5304;DHT22;2674;49.722;10.892;2023-06-14T15:37:43;24.00;1.00
5304;DHT22;2674;49.722;10.892;2023-06-14T15:40:09;23.90;1.00
5304;DHT22;2674;49.722;10.892;2023-06-14T15:42:35;23.80;1.00
5304;DHT22;2674;49.722;10.892;2023-06-14T15:45:01;23.60;1.00
5304;DHT22;2674;49.722;10.892;2023-06-14T15:47:27;23.60;1.00
5304;DHT22;2674;49.722;10.892;2023-06-14T15:49:53;23.60;1.00
5304;DHT22;2674;49.722;10.892;2023-06-14T15:52:19;23.70;1.00
5304;DHT22;2674;49.722;10.892;2023-06-14T15:54:44;23.60;1.00
5304;DHT22;2674;49.722;10.892;2023-06-14T15:57:10;23.40;1.00
5304;DHT22;2674;49.722;10.892;2023-06-14T15:59:37;23.50;1.00
5304;DHT22;2674;49.722;10.892;2023-06-14T16:02:02;23.90;1.00
5304;DHT22;2674;49.722;10.892;2023-06-14T16:04:28;24.20;1.00
5304;DHT22;2674;49.722;10.892;2023-06-14T16:06:54;24.10;1.00
5304;DHT22;2674;49.722;10.892;2023-06-14T16:09:21;24.00;1.00
5304;DHT22;2674;49.722;10.892;2023-06-14T16:11:49;23.60;1.00
5304;DHT22;2674;49.722;10.892;2023-06-14T16:14:15;23.40;1.00
5304;DHT22;2674;49.722;10.892;2023-06-14T16:16:41;23.30;1.00
5304;DHT22;2674;49.722;10.892;2023-06-14T16:19:07;23.10;1.00
5304;DHT22;2674;49.722;10.892;2023-06-14T16:21:33;22.90;1.00
5304;DHT22;2674;49.722;10.892;2023-06-14T16:24:03;22.80;1.00
5304;DHT22;2674;49.722;10.892;2023-06-14T16:26:28;22.80;1.00
5304;DHT22;2674;49.722;10.892;2023-06-14T16:28:55;22.80;1.00